sensor_id;sensor_type;location;lat;lon;timestamp;P1;durP1;ratioP1;P2;durP2;ratioP2
29838;SDS011;18669;53.356;-1.464;2023-02-21T00:00:09;4.88;;;4.38;;
29838;SDS011;18669;53.356;-1.464;2023-02-21T00:02:54;5.03;;;4.53;;
29838;SDS011;18669;53.356;-1.464;2023-02-21T00:05:39;5.05;;;4.55;;
29838;SDS011;18669;53.356;-1.464;2023-02-21T00:08:23;4.80;;;4.40;;
29838;SDS011;18669;53.356;-1.464;2023-02-21T00:11:08;6.40;;;4.47;;
29838;SDS011;18669;53.356;-1.464;2023-02-21T00:13:53;4.93;;;4.53;;
29838;SDS011;18669;53.356;-1.464;2023-02-21T00:16:37;5.13;;;4.63;;
29838;SDS011;18669;53.356;-1.464;2023-02-21T00:19:22;4.93;;;4.43;;
29838;SDS011;18669;53.356;-1.464;2023-02-21T00:22:07;4.43;;;4.03;;
29838;SDS011;18669;53.356;-1.464;2023-02-21T00:24:52;4.45;;;4.05;;
29838;SDS011;18669;53.356;-1.464;2023-02-21T00:27:37;3.90;;;3.50;;
29838;SDS011;18669;53.356;-1.464;2023-02-21T00:30:21;4.30;;;3.90;;
29838;SDS011;18669;53.356;-1.464;2023-02-21T00:33:06;5.63;;;3.80;;
29838;SDS011;18669;53.356;-1.464;2023-02-21T00:35:50;4.30;;;3.90;;
29838;SDS011;18669;53.356;-1.464;2023-02-21T00:38:36;4.53;;;3.92;;
29838;SDS011;18669;53.356;-1.464;2023-02-21T00:41:20;3.70;;;3.40;;
29838;SDS011;18669;53.356;-1.464;2023-02-21T00:44:05;3.17;;;2.92;;
29838;SDS011;18669;53.356;-1.464;2023-02-21T00:46:50;2.80;;;2.60;;
29838;SDS011;18669;53.356;-1.464;2023-02-21T00:49:34;3.35;;;3.05;;
29838;SDS011;18669;53.356;-1.464;2023-02-21T00:52:20;4.47;;;4.07;;
29838;SDS011;18669;53.356;-1.464;2023-02-21T00:55:04;5.80;;;5.30;;
29838;SDS011;18669;53.356;-1.464;2023-02-21T00:57:49;7.32;;;5.70;;
29838;SDS011;18669;53.356;-1.464;2023-02-21T01:00:34;4.90;;;4.50;;
29838;SDS011;18669;53.356;-1.464;2023-02-21T01:03:18;3.80;;;3.50;;
29838;SDS011;18669;53.356;-1.464;2023-02-21T01:06:07;3.92;;;3.60;;
29838;SDS011;18669;53.356;-1.464;2023-02-21T01:08:52;3.58;;;3.28;;
29838;SDS011;18669;53.356;-1.464;2023-02-21T01:11:37;3.72;;;3.42;;
29838;SDS011;18669;53.356;-1.464;2023-02-21T01:14:21;3.33;;;3.10;;
29838;SDS011;18669;53.356;-1.464;2023-02-21T01:17:06;4.05;;;2.38;;
29838;SDS011;18669;53.356;-1.464;2023-02-21T01:19:51;1.70;;;1.60;;
29838;SDS011;18669;53.356;-1.464;2023-02-21T01:22:35;1.52;;;1.42;;
29838;SDS011;18669;53.356;-1.464;2023-02-21T01:25:20;1.52;;;1.42;;
29838;SDS011;18669;53.356;-1.464;2023-02-21T01:28:05;1.20;;;1.10;;
29838;SDS011;18669;53.356;-1.464;2023-02-21T01:30:50;1.98;;;1.30;;
29838;SDS011;18669;53.356;-1.464;2023-02-21T01:33:36;1.50;;;1.40;;
29838;SDS011;18669;53.356;-1.464;2023-02-21T01:36:21;1.40;;;1.30;;
29838;SDS011;18669;53.356;-1.464;2023-02-21T01:39:06;1.48;;;1.38;;
29838;SDS011;18669;53.356;-1.464;2023-02-21T01:41:51;1.35;;;1.25;;
29838;SDS011;18669;53.356;-1.464;2023-02-21T01:44:39;2.10;;;1.50;;
29838;SDS011;18669;53.356;-1.464;2023-02-21T01:47:25;1.60;;;1.38;;
29838;SDS011;18669;53.356;-1.464;2023-02-21T01:53:08;1.60;;;1.50;;
29838;SDS011;18669;53.356;-1.464;2023-02-21T01:55:56;2.67;;;2.25;;
29838;SDS011;18669;53.356;-1.464;2023-02-21T01:58:43;4.78;;;3.20;;
29838;SDS011;18669;53.356;-1.464;2023-02-21T02:05:01;3.85;;;2.90;;
29838;SDS011;18669;53.356;-1.464;2023-02-21T02:07:48;3.55;;;2.10;;
29838;SDS011;18669;53.356;-1.464;2023-02-21T02:10:35;2.63;;;2.10;;
29838;SDS011;18669;53.356;-1.464;2023-02-21T02:19:07;2.53;;;1.40;;
29838;SDS011;18669;53.356;-1.464;2023-02-21T02:22:38;1.40;;;1.30;;
29838;SDS011;18669;53.356;-1.464;2023-02-21T02:33:03;1.30;;;1.20;;
29838;SDS011;18669;53.356;-1.464;2023-02-21T02:38:54;1.92;;;1.45;;
29838;SDS011;18669;53.356;-1.464;2023-02-21T02:43:58;2.17;;;1.40;;
29838;SDS011;18669;53.356;-1.464;2023-02-21T02:46:30;1.23;;;1.13;;
29838;SDS011;18669;53.356;-1.464;2023-02-21T02:51:33;2.40;;;1.67;;
29838;SDS011;18669;53.356;-1.464;2023-02-21T02:54:00;3.95;;;2.70;;
29838;SDS011;18669;53.356;-1.464;2023-02-21T03:12:18;1.50;;;1.40;;
29838;SDS011;18669;53.356;-1.464;2023-02-21T03:14:49;2.20;;;2.00;;
29838;SDS011;18669;53.356;-1.464;2023-02-21T03:17:23;2.10;;;1.90;;
29838;SDS011;18669;53.356;-1.464;2023-02-21T03:19:53;1.92;;;1.75;;
29838;SDS011;18669;53.356;-1.464;2023-02-21T03:22:23;2.60;;;2.40;;
29838;SDS011;18669;53.356;-1.464;2023-02-21T03:24:52;1.92;;;1.65;;
29838;SDS011;18669;53.356;-1.464;2023-02-21T03:27:19;2.13;;;1.90;;
29838;SDS011;18669;53.356;-1.464;2023-02-21T03:29:47;1.50;;;1.40;;
29838;SDS011;18669;53.356;-1.464;2023-02-21T03:34:42;1.70;;;1.60;;
29838;SDS011;18669;53.356;-1.464;2023-02-21T03:37:10;1.52;;;1.42;;
29838;SDS011;18669;53.356;-1.464;2023-02-21T03:39:44;1.73;;;1.63;;
29838;SDS011;18669;53.356;-1.464;2023-02-21T03:44:36;1.90;;;1.40;;
29838;SDS011;18669;53.356;-1.464;2023-02-21T03:49:27;2.22;;;1.58;;
29838;SDS011;18669;53.356;-1.464;2023-02-21T03:54:19;1.67;;;1.42;;
29838;SDS011;18669;53.356;-1.464;2023-02-21T03:59:11;1.45;;;1.35;;
29838;SDS011;18669;53.356;-1.464;2023-02-21T04:04:03;2.00;;;1.70;;
29838;SDS011;18669;53.356;-1.464;2023-02-21T04:08:54;0.98;;;0.98;;
29838;SDS011;18669;53.356;-1.464;2023-02-21T04:13:46;1.05;;;1.05;;
29838;SDS011;18669;53.356;-1.464;2023-02-21T04:16:12;1.38;;;1.27;;
29838;SDS011;18669;53.356;-1.464;2023-02-21T04:18:38;1.20;;;1.10;;
29838;SDS011;18669;53.356;-1.464;2023-02-21T04:23:30;1.45;;;1.10;;
29838;SDS011;18669;53.356;-1.464;2023-02-21T04:28:22;2.08;;;1.30;;
29838;SDS011;18669;53.356;-1.464;2023-02-21T04:33:14;1.00;;;0.90;;
29838;SDS011;18669;53.356;-1.464;2023-02-21T04:38:05;1.20;;;1.10;;
29838;SDS011;18669;53.356;-1.464;2023-02-21T04:42:57;0.98;;;0.88;;
29838;SDS011;18669;53.356;-1.464;2023-02-21T04:45:23;0.90;;;0.90;;
29838;SDS011;18669;53.356;-1.464;2023-02-21T04:47:49;1.10;;;1.00;;
29838;SDS011;18669;53.356;-1.464;2023-02-21T04:52:41;1.00;;;1.00;;
29838;SDS011;18669;53.356;-1.464;2023-02-21T04:57:33;1.90;;;1.60;;
29838;SDS011;18669;53.356;-1.464;2023-02-21T04:59:59;1.65;;;1.55;;
29838;SDS011;18669;53.356;-1.464;2023-02-21T05:02:26;1.50;;;1.40;;
29838;SDS011;18669;53.356;-1.464;2023-02-21T05:04:52;5.30;;;3.60;;
29838;SDS011;18669;53.356;-1.464;2023-02-21T05:09:44;4.20;;;3.10;;
29838;SDS011;18669;53.356;-1.464;2023-02-21T05:14:37;5.47;;;4.45;;
29838;SDS011;18669;53.356;-1.464;2023-02-21T05:17:04;4.95;;;3.30;;
29838;SDS011;18669;53.356;-1.464;2023-02-21T05:19:30;3.45;;;3.08;;
29838;SDS011;18669;53.356;-1.464;2023-02-21T05:21:57;5.45;;;4.07;;
29838;SDS011;18669;53.356;-1.464;2023-02-21T05:24:26;5.40;;;3.95;;
29838;SDS011;18669;53.356;-1.464;2023-02-21T05:26:54;3.92;;;3.50;;
29838;SDS011;18669;53.356;-1.464;2023-02-21T05:29:20;4.07;;;3.35;;
29838;SDS011;18669;53.356;-1.464;2023-02-21T05:31:46;4.40;;;3.10;;
29838;SDS011;18669;53.356;-1.464;2023-02-21T05:34:13;4.85;;;3.60;;
29838;SDS011;18669;53.356;-1.464;2023-02-21T05:36:40;4.22;;;3.10;;
29838;SDS011;18669;53.356;-1.464;2023-02-21T05:39:06;4.03;;;3.25;;
29838;SDS011;18669;53.356;-1.464;2023-02-21T05:41:33;3.15;;;2.85;;
29838;SDS011;18669;53.356;-1.464;2023-02-21T05:44:00;2.90;;;2.58;;
29838;SDS011;18669;53.356;-1.464;2023-02-21T05:46:28;3.80;;;2.70;;
29838;SDS011;18669;53.356;-1.464;2023-02-21T05:48:56;3.42;;;2.60;;
29838;SDS011;18669;53.356;-1.464;2023-02-21T05:51:23;2.13;;;1.92;;
29838;SDS011;18669;53.356;-1.464;2023-02-21T05:53:50;1.70;;;1.60;;
29838;SDS011;18669;53.356;-1.464;2023-02-21T05:56:17;2.22;;;1.70;;
29838;SDS011;18669;53.356;-1.464;2023-02-21T05:58:43;2.00;;;1.60;;
29838;SDS011;18669;53.356;-1.464;2023-02-21T06:03:35;1.90;;;1.30;;
29838;SDS011;18669;53.356;-1.464;2023-02-21T06:06:01;1.90;;;1.67;;
29838;SDS011;18669;53.356;-1.464;2023-02-21T06:08:27;2.75;;;1.63;;
29838;SDS011;18669;53.356;-1.464;2023-02-21T06:10:53;2.03;;;1.80;;
29838;SDS011;18669;53.356;-1.464;2023-02-21T06:15:45;1.88;;;1.23;;
29838;SDS011;18669;53.356;-1.464;2023-02-21T06:18:12;1.38;;;1.27;;
29838;SDS011;18669;53.356;-1.464;2023-02-21T06:20:39;1.42;;;1.33;;
29838;SDS011;18669;53.356;-1.464;2023-02-21T06:23:05;1.17;;;1.10;;
29838;SDS011;18669;53.356;-1.464;2023-02-21T06:25:31;1.30;;;1.20;;
29838;SDS011;18669;53.356;-1.464;2023-02-21T06:27:57;1.48;;;1.38;;
29838;SDS011;18669;53.356;-1.464;2023-02-21T06:30:24;1.33;;;1.15;;
29838;SDS011;18669;53.356;-1.464;2023-02-21T06:32:50;1.48;;;1.35;;
29838;SDS011;18669;53.356;-1.464;2023-02-21T06:35:16;1.75;;;1.58;;
29838;SDS011;18669;53.356;-1.464;2023-02-21T06:37:42;1.95;;;1.35;;
29838;SDS011;18669;53.356;-1.464;2023-02-21T06:40:08;1.48;;;1.38;;
29838;SDS011;18669;53.356;-1.464;2023-02-21T06:42:34;1.48;;;1.38;;
29838;SDS011;18669;53.356;-1.464;2023-02-21T06:45:01;1.00;;;1.00;;
29838;SDS011;18669;53.356;-1.464;2023-02-21T06:47:27;3.05;;;2.45;;
29838;SDS011;18669;53.356;-1.464;2023-02-21T06:52:19;2.13;;;1.58;;
29838;SDS011;18669;53.356;-1.464;2023-02-21T06:54:48;1.85;;;1.45;;
29838;SDS011;18669;53.356;-1.464;2023-02-21T06:57:14;2.25;;;1.20;;
29838;SDS011;18669;53.356;-1.464;2023-02-21T07:02:07;1.40;;;1.30;;
29838;SDS011;18669;53.356;-1.464;2023-02-21T07:04:43;1.70;;;1.60;;
29838;SDS011;18669;53.356;-1.464;2023-02-21T07:07:10;1.40;;;1.30;;
29838;SDS011;18669;53.356;-1.464;2023-02-21T07:12:02;1.65;;;1.55;;
29838;SDS011;18669;53.356;-1.464;2023-02-21T07:14:28;10.00;;;6.70;;
29838;SDS011;18669;53.356;-1.464;2023-02-21T07:16:55;4.38;;;2.38;;
29838;SDS011;18669;53.356;-1.464;2023-02-21T07:19:21;1.63;;;1.40;;
29838;SDS011;18669;53.356;-1.464;2023-02-21T07:24:13;1.20;;;1.10;;
29838;SDS011;18669;53.356;-1.464;2023-02-21T07:26:39;1.23;;;1.10;;
29838;SDS011;18669;53.356;-1.464;2023-02-21T07:29:05;2.00;;;1.80;;
29838;SDS011;18669;53.356;-1.464;2023-02-21T07:31:31;2.25;;;1.50;;
29838;SDS011;18669;53.356;-1.464;2023-02-21T07:33:58;1.30;;;1.10;;
29838;SDS011;18669;53.356;-1.464;2023-02-21T07:36:24;0.95;;;0.95;;
29838;SDS011;18669;53.356;-1.464;2023-02-21T07:38:51;1.38;;;1.17;;
29838;SDS011;18669;53.356;-1.464;2023-02-21T07:41:17;1.40;;;1.30;;
29838;SDS011;18669;53.356;-1.464;2023-02-21T07:43:43;1.20;;;1.10;;
29838;SDS011;18669;53.356;-1.464;2023-02-21T07:46:10;1.23;;;1.13;;
29838;SDS011;18669;53.356;-1.464;2023-02-21T07:48:37;1.67;;;1.27;;
29838;SDS011;18669;53.356;-1.464;2023-02-21T07:51:05;1.13;;;1.05;;
29838;SDS011;18669;53.356;-1.464;2023-02-21T07:53:32;8.80;;;4.43;;
29838;SDS011;18669;53.356;-1.464;2023-02-21T07:55:59;2.03;;;1.67;;
29838;SDS011;18669;53.356;-1.464;2023-02-21T07:58:26;3.22;;;1.67;;
29838;SDS011;18669;53.356;-1.464;2023-02-21T08:00:52;2.33;;;1.00;;
29838;SDS011;18669;53.356;-1.464;2023-02-21T08:03:20;1.30;;;1.20;;
29838;SDS011;18669;53.356;-1.464;2023-02-21T08:05:46;1.13;;;1.02;;
29838;SDS011;18669;53.356;-1.464;2023-02-21T08:08:13;1.20;;;1.10;;
29838;SDS011;18669;53.356;-1.464;2023-02-21T08:10:39;2.42;;;0.90;;
29838;SDS011;18669;53.356;-1.464;2023-02-21T08:13:05;1.00;;;0.90;;
29838;SDS011;18669;53.356;-1.464;2023-02-21T08:15:31;4.15;;;1.00;;
29838;SDS011;18669;53.356;-1.464;2023-02-21T08:17:57;1.15;;;1.08;;
29838;SDS011;18669;53.356;-1.464;2023-02-21T08:20:23;0.93;;;0.90;;
29838;SDS011;18669;53.356;-1.464;2023-02-21T08:22:49;0.95;;;0.95;;
29838;SDS011;18669;53.356;-1.464;2023-02-21T08:25:15;1.55;;;1.20;;
29838;SDS011;18669;53.356;-1.464;2023-02-21T08:30:08;2.28;;;0.90;;
29838;SDS011;18669;53.356;-1.464;2023-02-21T08:32:36;2.97;;;0.93;;
29838;SDS011;18669;53.356;-1.464;2023-02-21T08:35:03;0.73;;;0.73;;
29838;SDS011;18669;53.356;-1.464;2023-02-21T08:37:31;3.08;;;0.80;;
29838;SDS011;18669;53.356;-1.464;2023-02-21T08:40:00;1.45;;;0.88;;
29838;SDS011;18669;53.356;-1.464;2023-02-21T08:42:28;1.85;;;0.80;;
29838;SDS011;18669;53.356;-1.464;2023-02-21T08:44:54;0.90;;;0.90;;
29838;SDS011;18669;53.356;-1.464;2023-02-21T08:49:46;1.77;;;1.27;;
29838;SDS011;18669;53.356;-1.464;2023-02-21T08:52:14;1.77;;;0.98;;
29838;SDS011;18669;53.356;-1.464;2023-02-21T08:54:42;1.10;;;1.00;;
29838;SDS011;18669;53.356;-1.464;2023-02-21T08:57:08;3.17;;;1.65;;
29838;SDS011;18669;53.356;-1.464;2023-02-21T08:59:38;1.70;;;0.95;;
29838;SDS011;18669;53.356;-1.464;2023-02-21T09:02:17;2.78;;;1.00;;
29838;SDS011;18669;53.356;-1.464;2023-02-21T09:04:45;2.58;;;1.08;;
29838;SDS011;18669;53.356;-1.464;2023-02-21T09:07:14;2.30;;;1.10;;
29838;SDS011;18669;53.356;-1.464;2023-02-21T09:09:42;1.40;;;1.10;;
29838;SDS011;18669;53.356;-1.464;2023-02-21T09:14:35;3.22;;;1.35;;
29838;SDS011;18669;53.356;-1.464;2023-02-21T09:17:02;0.90;;;0.90;;
29838;SDS011;18669;53.356;-1.464;2023-02-21T09:19:29;0.90;;;0.90;;
29838;SDS011;18669;53.356;-1.464;2023-02-21T09:24:22;2.87;;;0.83;;
29838;SDS011;18669;53.356;-1.464;2023-02-21T09:26:50;0.95;;;0.95;;
29838;SDS011;18669;53.356;-1.464;2023-02-21T09:29:21;2.15;;;1.00;;
29838;SDS011;18669;53.356;-1.464;2023-02-21T09:31:47;1.45;;;1.20;;
29838;SDS011;18669;53.356;-1.464;2023-02-21T09:34:14;1.17;;;1.08;;
29838;SDS011;18669;53.356;-1.464;2023-02-21T09:36:41;1.20;;;1.10;;
29838;SDS011;18669;53.356;-1.464;2023-02-21T09:39:07;7.70;;;1.35;;
29838;SDS011;18669;53.356;-1.464;2023-02-21T09:41:35;7.72;;;2.17;;
29838;SDS011;18669;53.356;-1.464;2023-02-21T09:44:03;5.35;;;2.10;;
29838;SDS011;18669;53.356;-1.464;2023-02-21T09:49:05;1.42;;;1.33;;
29838;SDS011;18669;53.356;-1.464;2023-02-21T09:51:35;1.58;;;1.48;;
29838;SDS011;18669;53.356;-1.464;2023-02-21T09:54:06;2.40;;;1.92;;
29838;SDS011;18669;53.356;-1.464;2023-02-21T09:56:57;3.28;;;1.80;;
29838;SDS011;18669;53.356;-1.464;2023-02-21T09:59:26;2.05;;;1.80;;
29838;SDS011;18669;53.356;-1.464;2023-02-21T10:07:12;1.67;;;1.50;;
29838;SDS011;18669;53.356;-1.464;2023-02-21T10:09:45;2.08;;;1.80;;
29838;SDS011;18669;53.356;-1.464;2023-02-21T10:12:19;3.97;;;1.60;;
29838;SDS011;18669;53.356;-1.464;2023-02-21T10:14:59;1.63;;;1.52;;
29838;SDS011;18669;53.356;-1.464;2023-02-21T10:17:30;1.77;;;1.67;;
29838;SDS011;18669;53.356;-1.464;2023-02-21T10:20:12;2.63;;;2.25;;
29838;SDS011;18669;53.356;-1.464;2023-02-21T10:22:47;3.25;;;2.17;;
29838;SDS011;18669;53.356;-1.464;2023-02-21T10:25:19;2.50;;;1.70;;
29838;SDS011;18669;53.356;-1.464;2023-02-21T10:27:49;2.92;;;2.35;;
29838;SDS011;18669;53.356;-1.464;2023-02-21T10:30:19;1.73;;;1.60;;
29838;SDS011;18669;53.356;-1.464;2023-02-21T10:32:54;2.17;;;1.75;;
29838;SDS011;18669;53.356;-1.464;2023-02-21T10:35:21;1.95;;;1.65;;
29838;SDS011;18669;53.356;-1.464;2023-02-21T10:40:27;2.10;;;1.90;;
29838;SDS011;18669;53.356;-1.464;2023-02-21T10:46:08;2.03;;;1.92;;
29838;SDS011;18669;53.356;-1.464;2023-02-21T10:48:45;2.75;;;1.98;;
29838;SDS011;18669;53.356;-1.464;2023-02-21T10:51:13;1.88;;;1.77;;
29838;SDS011;18669;53.356;-1.464;2023-02-21T10:53:42;2.13;;;1.92;;
29838;SDS011;18669;53.356;-1.464;2023-02-21T11:03:58;1.92;;;1.70;;
29838;SDS011;18669;53.356;-1.464;2023-02-21T11:08:55;2.25;;;1.90;;
29838;SDS011;18669;53.356;-1.464;2023-02-21T11:11:40;5.10;;;2.70;;
29838;SDS011;18669;53.356;-1.464;2023-02-21T11:14:17;1.40;;;1.30;;
29838;SDS011;18669;53.356;-1.464;2023-02-21T11:22:21;6.07;;;2.55;;
29838;SDS011;18669;53.356;-1.464;2023-02-21T11:25:53;2.25;;;1.77;;
29838;SDS011;18669;53.356;-1.464;2023-02-21T11:31:01;3.58;;;1.40;;
29838;SDS011;18669;53.356;-1.464;2023-02-21T11:34:01;2.25;;;1.30;;
29838;SDS011;18669;53.356;-1.464;2023-02-21T11:36:33;2.92;;;1.70;;
29838;SDS011;18669;53.356;-1.464;2023-02-21T11:47:13;1.60;;;1.38;;
29838;SDS011;18669;53.356;-1.464;2023-02-21T11:49:47;1.27;;;1.17;;
29838;SDS011;18669;53.356;-1.464;2023-02-21T11:52:30;2.55;;;1.70;;
29838;SDS011;18669;53.356;-1.464;2023-02-21T11:55:02;2.70;;;1.30;;
29838;SDS011;18669;53.356;-1.464;2023-02-21T12:11:21;1.77;;;1.67;;
29838;SDS011;18669;53.356;-1.464;2023-02-21T12:28:04;2.42;;;1.60;;
29838;SDS011;18669;53.356;-1.464;2023-02-21T12:30:51;4.93;;;2.25;;
29838;SDS011;18669;53.356;-1.464;2023-02-21T12:39:00;4.38;;;2.17;;
29838;SDS011;18669;53.356;-1.464;2023-02-21T12:41:34;3.42;;;1.92;;
29838;SDS011;18669;53.356;-1.464;2023-02-21T12:44:14;3.38;;;1.98;;
29838;SDS011;18669;53.356;-1.464;2023-02-21T12:54:59;3.70;;;1.63;;
29838;SDS011;18669;53.356;-1.464;2023-02-21T12:57:40;2.83;;;1.70;;
29838;SDS011;18669;53.356;-1.464;2023-02-21T13:00:23;5.90;;;2.10;;
29838;SDS011;18669;53.356;-1.464;2023-02-21T13:02:57;4.15;;;2.50;;
29838;SDS011;18669;53.356;-1.464;2023-02-21T13:05:35;2.55;;;2.00;;
29838;SDS011;18669;53.356;-1.464;2023-02-21T13:08:06;6.30;;;2.22;;
29838;SDS011;18669;53.356;-1.464;2023-02-21T13:11:13;2.83;;;2.10;;
29838;SDS011;18669;53.356;-1.464;2023-02-21T13:13:51;4.22;;;3.30;;
29838;SDS011;18669;53.356;-1.464;2023-02-21T13:27:04;5.88;;;2.17;;
29838;SDS011;18669;53.356;-1.464;2023-02-21T13:29:33;6.25;;;2.33;;
29838;SDS011;18669;53.356;-1.464;2023-02-21T13:32:05;6.70;;;2.25;;
29838;SDS011;18669;53.356;-1.464;2023-02-21T13:34:43;3.88;;;2.10;;
29838;SDS011;18669;53.356;-1.464;2023-02-21T13:37:27;2.00;;;1.80;;
29838;SDS011;18669;53.356;-1.464;2023-02-21T13:39:59;2.40;;;1.70;;
29838;SDS011;18669;53.356;-1.464;2023-02-21T13:42:41;2.17;;;1.95;;
29838;SDS011;18669;53.356;-1.464;2023-02-21T13:45:23;4.82;;;1.98;;
29838;SDS011;18669;53.356;-1.464;2023-02-21T13:55:35;2.15;;;1.80;;
29838;SDS011;18669;53.356;-1.464;2023-02-21T14:13:28;1.80;;;1.70;;
29838;SDS011;18669;53.356;-1.464;2023-02-21T14:21:01;5.85;;;2.30;;
29838;SDS011;18669;53.356;-1.464;2023-02-21T14:23:39;4.07;;;1.70;;
29838;SDS011;18669;53.356;-1.464;2023-02-21T14:34:29;2.50;;;1.70;;
29838;SDS011;18669;53.356;-1.464;2023-02-21T14:36:59;4.00;;;2.80;;
29838;SDS011;18669;53.356;-1.464;2023-02-21T14:39:35;1.85;;;1.60;;
29838;SDS011;18669;53.356;-1.464;2023-02-21T14:47:50;2.05;;;1.63;;
29838;SDS011;18669;53.356;-1.464;2023-02-21T14:56:22;6.97;;;2.58;;
29838;SDS011;18669;53.356;-1.464;2023-02-21T15:01:43;2.65;;;2.15;;
29838;SDS011;18669;53.356;-1.464;2023-02-21T15:06:56;3.22;;;2.70;;
29838;SDS011;18669;53.356;-1.464;2023-02-21T15:09:33;2.17;;;1.98;;
29838;SDS011;18669;53.356;-1.464;2023-02-21T15:11:59;6.13;;;3.15;;
29838;SDS011;18669;53.356;-1.464;2023-02-21T15:14:28;7.07;;;2.47;;
29838;SDS011;18669;53.356;-1.464;2023-02-21T15:16:59;10.18;;;3.47;;
29838;SDS011;18669;53.356;-1.464;2023-02-21T15:19:30;5.15;;;2.88;;
29838;SDS011;18669;53.356;-1.464;2023-02-21T15:22:13;3.45;;;2.70;;
29838;SDS011;18669;53.356;-1.464;2023-02-21T15:27:37;2.55;;;2.35;;
29838;SDS011;18669;53.356;-1.464;2023-02-21T15:30:24;2.65;;;2.45;;
29838;SDS011;18669;53.356;-1.464;2023-02-21T15:41:17;6.00;;;2.85;;
29838;SDS011;18669;53.356;-1.464;2023-02-21T15:43:56;6.60;;;3.63;;
29838;SDS011;18669;53.356;-1.464;2023-02-21T15:46:28;3.47;;;2.50;;
29838;SDS011;18669;53.356;-1.464;2023-02-21T15:49:00;4.35;;;2.88;;
29838;SDS011;18669;53.356;-1.464;2023-02-21T15:51:28;4.70;;;3.67;;
29838;SDS011;18669;53.356;-1.464;2023-02-21T15:56:43;4.72;;;2.83;;
29838;SDS011;18669;53.356;-1.464;2023-02-21T15:59:23;5.25;;;2.80;;
29838;SDS011;18669;53.356;-1.464;2023-02-21T16:04:36;15.85;;;6.63;;
29838;SDS011;18669;53.356;-1.464;2023-02-21T16:07:04;12.73;;;5.68;;
29838;SDS011;18669;53.356;-1.464;2023-02-21T16:09:33;8.48;;;4.68;;
29838;SDS011;18669;53.356;-1.464;2023-02-21T16:12:05;14.73;;;6.30;;
29838;SDS011;18669;53.356;-1.464;2023-02-21T16:14:42;19.33;;;6.40;;
29838;SDS011;18669;53.356;-1.464;2023-02-21T16:19:41;10.93;;;5.38;;
29838;SDS011;18669;53.356;-1.464;2023-02-21T16:22:11;6.68;;;3.65;;
29838;SDS011;18669;53.356;-1.464;2023-02-21T16:27:30;3.95;;;3.10;;
29838;SDS011;18669;53.356;-1.464;2023-02-21T16:32:22;8.02;;;3.35;;
29838;SDS011;18669;53.356;-1.464;2023-02-21T16:34:49;6.03;;;3.05;;
29838;SDS011;18669;53.356;-1.464;2023-02-21T16:37:19;3.47;;;2.97;;
29838;SDS011;18669;53.356;-1.464;2023-02-21T16:39:47;13.07;;;3.88;;
29838;SDS011;18669;53.356;-1.464;2023-02-21T16:42:13;6.20;;;3.28;;
29838;SDS011;18669;53.356;-1.464;2023-02-21T16:44:43;6.90;;;5.00;;
29838;SDS011;18669;53.356;-1.464;2023-02-21T16:47:12;4.82;;;3.30;;
29838;SDS011;18669;53.356;-1.464;2023-02-21T16:49:40;9.98;;;3.53;;
29838;SDS011;18669;53.356;-1.464;2023-02-21T16:52:13;5.22;;;3.28;;
29838;SDS011;18669;53.356;-1.464;2023-02-21T16:54:40;6.18;;;3.97;;
29838;SDS011;18669;53.356;-1.464;2023-02-21T16:57:06;6.75;;;3.78;;
29838;SDS011;18669;53.356;-1.464;2023-02-21T16:59:32;6.78;;;4.13;;
29838;SDS011;18669;53.356;-1.464;2023-02-21T17:01:58;5.55;;;3.25;;
29838;SDS011;18669;53.356;-1.464;2023-02-21T17:04:26;5.40;;;3.63;;
29838;SDS011;18669;53.356;-1.464;2023-02-21T17:06:57;5.47;;;3.70;;
29838;SDS011;18669;53.356;-1.464;2023-02-21T17:09:29;4.03;;;3.30;;
29838;SDS011;18669;53.356;-1.464;2023-02-21T17:12:01;4.43;;;3.50;;
29838;SDS011;18669;53.356;-1.464;2023-02-21T17:14:27;5.22;;;3.50;;
29838;SDS011;18669;53.356;-1.464;2023-02-21T17:19:19;7.82;;;3.90;;
29838;SDS011;18669;53.356;-1.464;2023-02-21T17:21:46;5.38;;;4.30;;
29838;SDS011;18669;53.356;-1.464;2023-02-21T17:24:12;7.05;;;4.53;;
29838;SDS011;18669;53.356;-1.464;2023-02-21T17:26:39;7.93;;;5.05;;
29838;SDS011;18669;53.356;-1.464;2023-02-21T17:29:06;8.73;;;4.63;;
29838;SDS011;18669;53.356;-1.464;2023-02-21T17:31:33;10.30;;;5.72;;
29838;SDS011;18669;53.356;-1.464;2023-02-21T17:36:25;10.88;;;7.28;;
29838;SDS011;18669;53.356;-1.464;2023-02-21T17:38:52;9.23;;;6.13;;
29838;SDS011;18669;53.356;-1.464;2023-02-21T17:41:19;9.38;;;6.78;;
29838;SDS011;18669;53.356;-1.464;2023-02-21T17:43:46;18.48;;;8.27;;
29838;SDS011;18669;53.356;-1.464;2023-02-21T17:46:12;13.27;;;8.73;;
29838;SDS011;18669;53.356;-1.464;2023-02-21T17:48:40;12.55;;;8.15;;
29838;SDS011;18669;53.356;-1.464;2023-02-21T17:51:07;12.90;;;7.30;;
29838;SDS011;18669;53.356;-1.464;2023-02-21T17:53:33;15.23;;;7.38;;
29838;SDS011;18669;53.356;-1.464;2023-02-21T17:58:25;21.38;;;10.45;;
29838;SDS011;18669;53.356;-1.464;2023-02-21T18:00:52;15.43;;;9.48;;
29838;SDS011;18669;53.356;-1.464;2023-02-21T18:03:20;13.85;;;8.02;;
29838;SDS011;18669;53.356;-1.464;2023-02-21T18:05:50;13.10;;;8.27;;
29838;SDS011;18669;53.356;-1.464;2023-02-21T18:08:16;20.50;;;11.63;;
29838;SDS011;18669;53.356;-1.464;2023-02-21T18:10:43;20.40;;;10.65;;
29838;SDS011;18669;53.356;-1.464;2023-02-21T18:13:12;14.38;;;8.50;;
29838;SDS011;18669;53.356;-1.464;2023-02-21T18:15:39;11.95;;;7.53;;
29838;SDS011;18669;53.356;-1.464;2023-02-21T18:20:32;12.53;;;6.90;;
29838;SDS011;18669;53.356;-1.464;2023-02-21T18:22:58;10.75;;;6.93;;
29838;SDS011;18669;53.356;-1.464;2023-02-21T18:25:24;11.05;;;6.30;;
29838;SDS011;18669;53.356;-1.464;2023-02-21T18:27:51;11.50;;;5.95;;
29838;SDS011;18669;53.356;-1.464;2023-02-21T18:30:17;7.65;;;5.43;;
29838;SDS011;18669;53.356;-1.464;2023-02-21T18:32:44;8.07;;;5.65;;
29838;SDS011;18669;53.356;-1.464;2023-02-21T18:35:11;35.25;;;22.98;;
29838;SDS011;18669;53.356;-1.464;2023-02-21T18:40:03;8.10;;;5.80;;
29838;SDS011;18669;53.356;-1.464;2023-02-21T18:42:31;7.32;;;5.40;;
29838;SDS011;18669;53.356;-1.464;2023-02-21T18:44:57;8.60;;;5.60;;
29838;SDS011;18669;53.356;-1.464;2023-02-21T18:49:49;7.95;;;4.93;;
29838;SDS011;18669;53.356;-1.464;2023-02-21T18:54:43;6.65;;;5.00;;
29838;SDS011;18669;53.356;-1.464;2023-02-21T18:57:16;9.15;;;5.43;;
29838;SDS011;18669;53.356;-1.464;2023-02-21T18:59:45;11.20;;;6.15;;
29838;SDS011;18669;53.356;-1.464;2023-02-21T19:04:39;21.52;;;14.70;;
29838;SDS011;18669;53.356;-1.464;2023-02-21T19:07:07;14.20;;;11.43;;
29838;SDS011;18669;53.356;-1.464;2023-02-21T19:09:35;9.18;;;6.97;;
29838;SDS011;18669;53.356;-1.464;2023-02-21T19:14:28;9.25;;;6.35;;
29838;SDS011;18669;53.356;-1.464;2023-02-21T19:16:55;9.75;;;6.28;;
29838;SDS011;18669;53.356;-1.464;2023-02-21T19:19:21;7.70;;;5.55;;
29838;SDS011;18669;53.356;-1.464;2023-02-21T19:21:47;7.43;;;5.18;;
29838;SDS011;18669;53.356;-1.464;2023-02-21T19:24:13;6.13;;;5.10;;
29838;SDS011;18669;53.356;-1.464;2023-02-21T19:26:39;5.20;;;4.28;;
29838;SDS011;18669;53.356;-1.464;2023-02-21T19:29:08;7.15;;;4.90;;
29838;SDS011;18669;53.356;-1.464;2023-02-21T19:31:35;6.25;;;5.28;;
29838;SDS011;18669;53.356;-1.464;2023-02-21T19:34:01;7.65;;;5.35;;
29838;SDS011;18669;53.356;-1.464;2023-02-21T19:36:27;9.05;;;6.88;;
29838;SDS011;18669;53.356;-1.464;2023-02-21T19:38:53;14.27;;;6.57;;
29838;SDS011;18669;53.356;-1.464;2023-02-21T19:41:19;14.02;;;9.60;;
29838;SDS011;18669;53.356;-1.464;2023-02-21T19:43:46;7.60;;;6.03;;
29838;SDS011;18669;53.356;-1.464;2023-02-21T19:46:24;6.32;;;5.28;;
29838;SDS011;18669;53.356;-1.464;2023-02-21T19:48:51;7.07;;;5.55;;
29838;SDS011;18669;53.356;-1.464;2023-02-21T19:51:22;34.95;;;16.83;;
29838;SDS011;18669;53.356;-1.464;2023-02-21T19:53:49;23.55;;;11.73;;
29838;SDS011;18669;53.356;-1.464;2023-02-21T19:56:15;19.67;;;11.80;;
29838;SDS011;18669;53.356;-1.464;2023-02-21T19:58:41;21.70;;;12.10;;
29838;SDS011;18669;53.356;-1.464;2023-02-21T20:03:34;7.88;;;5.22;;